sensor_id;sensor_type;location;lat;lon;timestamp;P1;durP1;ratioP1;P2;durP2;ratioP2
25213;SDS011;13160;51.834;4.706;2022-08-23T00:00:24;12.27;;;5.40;;
25213;SDS011;13160;51.834;4.706;2022-08-23T00:02:55;9.98;;;4.80;;
25213;SDS011;13160;51.834;4.706;2022-08-23T00:05:25;12.40;;;5.35;;
25213;SDS011;13160;51.834;4.706;2022-08-23T00:07:53;12.07;;;5.53;;
25213;SDS011;13160;51.834;4.706;2022-08-23T00:10:21;8.73;;;4.85;;
25213;SDS011;13160;51.834;4.706;2022-08-23T00:12:50;11.27;;;5.32;;
25213;SDS011;13160;51.834;4.706;2022-08-23T00:15:18;10.18;;;5.45;;
25213;SDS011;13160;51.834;4.706;2022-08-23T00:17:49;10.27;;;4.43;;
25213;SDS011;13160;51.834;4.706;2022-08-23T00:20:18;11.30;;;4.65;;
25213;SDS011;13160;51.834;4.706;2022-08-23T00:22:46;15.90;;;5.80;;
25213;SDS011;13160;51.834;4.706;2022-08-23T00:25:15;11.02;;;5.30;;
25213;SDS011;13160;51.834;4.706;2022-08-23T00:27:43;8.73;;;4.78;;
25213;SDS011;13160;51.834;4.706;2022-08-23T00:30:12;11.63;;;5.03;;
25213;SDS011;13160;51.834;4.706;2022-08-23T00:32:41;10.27;;;4.70;;
25213;SDS011;13160;51.834;4.706;2022-08-23T00:35:13;9.60;;;5.15;;
25213;SDS011;13160;51.834;4.706;2022-08-23T00:37:53;9.68;;;5.18;;
25213;SDS011;13160;51.834;4.706;2022-08-23T00:40:43;11.05;;;5.40;;
25213;SDS011;13160;51.834;4.706;2022-08-23T00:43:17;12.60;;;5.00;;
25213;SDS011;13160;51.834;4.706;2022-08-23T00:46:11;10.57;;;5.22;;
25213;SDS011;13160;51.834;4.706;2022-08-23T00:49:17;9.75;;;5.18;;
25213;SDS011;13160;51.834;4.706;2022-08-23T00:51:50;8.77;;;4.85;;
25213;SDS011;13160;51.834;4.706;2022-08-23T00:54:24;11.43;;;5.47;;
25213;SDS011;13160;51.834;4.706;2022-08-23T00:56:54;10.15;;;4.55;;
25213;SDS011;13160;51.834;4.706;2022-08-23T00:59:25;8.95;;;4.30;;
25213;SDS011;13160;51.834;4.706;2022-08-23T01:01:54;10.00;;;4.60;;
25213;SDS011;13160;51.834;4.706;2022-08-23T01:04:23;10.65;;;5.00;;
25213;SDS011;13160;51.834;4.706;2022-08-23T01:06:56;9.77;;;5.25;;
25213;SDS011;13160;51.834;4.706;2022-08-23T01:09:28;12.57;;;5.50;;
25213;SDS011;13160;51.834;4.706;2022-08-23T01:11:58;10.80;;;4.60;;
25213;SDS011;13160;51.834;4.706;2022-08-23T01:14:34;9.52;;;4.88;;
25213;SDS011;13160;51.834;4.706;2022-08-23T01:17:09;8.02;;;4.90;;
25213;SDS011;13160;51.834;4.706;2022-08-23T01:19:43;11.40;;;5.15;;
25213;SDS011;13160;51.834;4.706;2022-08-23T01:22:20;8.38;;;5.00;;
25213;SDS011;13160;51.834;4.706;2022-08-23T01:24:56;12.10;;;5.20;;
25213;SDS011;13160;51.834;4.706;2022-08-23T01:27:34;10.30;;;5.10;;
25213;SDS011;13160;51.834;4.706;2022-08-23T01:30:03;9.88;;;5.30;;
25213;SDS011;13160;51.834;4.706;2022-08-23T01:32:34;11.15;;;4.85;;
25213;SDS011;13160;51.834;4.706;2022-08-23T01:35:10;8.90;;;4.60;;
25213;SDS011;13160;51.834;4.706;2022-08-23T01:37:39;11.63;;;4.45;;
25213;SDS011;13160;51.834;4.706;2022-08-23T01:40:09;10.60;;;4.60;;
25213;SDS011;13160;51.834;4.706;2022-08-23T01:42:38;11.38;;;5.00;;
25213;SDS011;13160;51.834;4.706;2022-08-23T01:45:09;9.88;;;4.65;;
25213;SDS011;13160;51.834;4.706;2022-08-23T01:47:40;9.93;;;5.07;;
25213;SDS011;13160;51.834;4.706;2022-08-23T01:50:09;9.07;;;5.05;;
25213;SDS011;13160;51.834;4.706;2022-08-23T01:52:40;10.82;;;4.82;;
25213;SDS011;13160;51.834;4.706;2022-08-23T01:55:14;9.98;;;4.72;;
25213;SDS011;13160;51.834;4.706;2022-08-23T01:57:43;10.02;;;5.20;;
25213;SDS011;13160;51.834;4.706;2022-08-23T02:00:14;10.35;;;5.35;;
25213;SDS011;13160;51.834;4.706;2022-08-23T02:02:43;10.43;;;4.90;;
25213;SDS011;13160;51.834;4.706;2022-08-23T02:05:12;11.90;;;5.47;;
25213;SDS011;13160;51.834;4.706;2022-08-23T02:07:44;11.75;;;5.15;;
25213;SDS011;13160;51.834;4.706;2022-08-23T02:10:14;9.90;;;5.15;;
25213;SDS011;13160;51.834;4.706;2022-08-23T02:12:44;10.27;;;5.40;;
25213;SDS011;13160;51.834;4.706;2022-08-23T02:15:14;8.93;;;4.88;;
25213;SDS011;13160;51.834;4.706;2022-08-23T02:17:43;12.40;;;5.03;;
25213;SDS011;13160;51.834;4.706;2022-08-23T02:20:12;9.27;;;4.45;;
25213;SDS011;13160;51.834;4.706;2022-08-23T02:22:40;8.13;;;4.35;;
25213;SDS011;13160;51.834;4.706;2022-08-23T02:25:08;12.48;;;4.90;;
25213;SDS011;13160;51.834;4.706;2022-08-23T02:27:38;11.05;;;5.03;;
25213;SDS011;13160;51.834;4.706;2022-08-23T02:30:10;9.65;;;4.53;;
25213;SDS011;13160;51.834;4.706;2022-08-23T02:32:39;14.63;;;5.30;;
25213;SDS011;13160;51.834;4.706;2022-08-23T02:35:07;10.80;;;4.65;;
25213;SDS011;13160;51.834;4.706;2022-08-23T02:37:36;10.18;;;4.65;;
25213;SDS011;13160;51.834;4.706;2022-08-23T02:40:05;9.75;;;4.57;;
25213;SDS011;13160;51.834;4.706;2022-08-23T02:42:34;9.30;;;4.72;;
25213;SDS011;13160;51.834;4.706;2022-08-23T02:45:05;10.70;;;5.15;;
25213;SDS011;13160;51.834;4.706;2022-08-23T02:47:34;9.15;;;4.60;;
25213;SDS011;13160;51.834;4.706;2022-08-23T02:50:04;8.85;;;4.60;;
25213;SDS011;13160;51.834;4.706;2022-08-23T02:52:34;9.07;;;4.78;;
25213;SDS011;13160;51.834;4.706;2022-08-23T02:55:03;10.50;;;5.03;;
25213;SDS011;13160;51.834;4.706;2022-08-23T02:57:32;11.00;;;4.97;;
25213;SDS011;13160;51.834;4.706;2022-08-23T03:00:01;12.07;;;5.47;;
25213;SDS011;13160;51.834;4.706;2022-08-23T03:02:34;9.75;;;5.30;;
25213;SDS011;13160;51.834;4.706;2022-08-23T03:05:03;16.90;;;6.35;;
25213;SDS011;13160;51.834;4.706;2022-08-23T03:07:32;10.30;;;5.43;;
25213;SDS011;13160;51.834;4.706;2022-08-23T03:10:02;10.40;;;5.72;;
25213;SDS011;13160;51.834;4.706;2022-08-23T03:12:31;10.90;;;5.93;;
25213;SDS011;13160;51.834;4.706;2022-08-23T03:14:59;10.95;;;6.07;;
25213;SDS011;13160;51.834;4.706;2022-08-23T03:17:29;13.05;;;6.60;;
25213;SDS011;13160;51.834;4.706;2022-08-23T03:19:57;11.05;;;6.10;;
25213;SDS011;13160;51.834;4.706;2022-08-23T03:22:25;11.15;;;6.45;;
25213;SDS011;13160;51.834;4.706;2022-08-23T03:24:54;14.48;;;6.63;;
25213;SDS011;13160;51.834;4.706;2022-08-23T03:27:22;12.32;;;6.35;;
25213;SDS011;13160;51.834;4.706;2022-08-23T03:29:50;13.00;;;6.65;;
25213;SDS011;13160;51.834;4.706;2022-08-23T03:32:19;14.20;;;6.70;;
25213;SDS011;13160;51.834;4.706;2022-08-23T03:34:51;13.00;;;6.25;;
25213;SDS011;13160;51.834;4.706;2022-08-23T03:37:20;12.57;;;6.05;;
25213;SDS011;13160;51.834;4.706;2022-08-23T03:39:48;11.77;;;6.55;;
25213;SDS011;13160;51.834;4.706;2022-08-23T03:42:17;8.05;;;5.75;;
25213;SDS011;13160;51.834;4.706;2022-08-23T03:44:55;9.02;;;5.70;;
25213;SDS011;13160;51.834;4.706;2022-08-23T03:47:28;10.45;;;6.35;;
25213;SDS011;13160;51.834;4.706;2022-08-23T03:49:58;12.13;;;6.47;;
25213;SDS011;13160;51.834;4.706;2022-08-23T03:52:26;13.70;;;6.72;;
25213;SDS011;13160;51.834;4.706;2022-08-23T03:54:54;11.07;;;6.30;;
25213;SDS011;13160;51.834;4.706;2022-08-23T03:57:23;11.45;;;6.40;;
25213;SDS011;13160;51.834;4.706;2022-08-23T03:59:51;11.77;;;6.70;;
25213;SDS011;13160;51.834;4.706;2022-08-23T04:02:20;12.38;;;6.85;;
25213;SDS011;13160;51.834;4.706;2022-08-23T04:04:48;10.13;;;6.80;;
25213;SDS011;13160;51.834;4.706;2022-08-23T04:07:18;9.93;;;6.38;;
25213;SDS011;13160;51.834;4.706;2022-08-23T04:09:47;9.50;;;6.60;;
25213;SDS011;13160;51.834;4.706;2022-08-23T04:12:20;15.10;;;7.15;;
25213;SDS011;13160;51.834;4.706;2022-08-23T04:14:49;13.30;;;7.28;;
25213;SDS011;13160;51.834;4.706;2022-08-23T04:17:17;11.95;;;7.05;;
25213;SDS011;13160;51.834;4.706;2022-08-23T04:19:46;12.10;;;8.23;;
25213;SDS011;13160;51.834;4.706;2022-08-23T04:22:16;15.05;;;8.23;;
25213;SDS011;13160;51.834;4.706;2022-08-23T04:24:47;12.70;;;7.57;;
25213;SDS011;13160;51.834;4.706;2022-08-23T04:27:15;12.02;;;8.48;;
25213;SDS011;13160;51.834;4.706;2022-08-23T04:29:44;12.57;;;7.88;;
25213;SDS011;13160;51.834;4.706;2022-08-23T04:32:12;12.05;;;7.80;;
25213;SDS011;13160;51.834;4.706;2022-08-23T04:34:53;15.30;;;7.82;;
25213;SDS011;13160;51.834;4.706;2022-08-23T04:37:24;11.63;;;7.78;;
25213;SDS011;13160;51.834;4.706;2022-08-23T04:39:53;11.52;;;7.20;;
25213;SDS011;13160;51.834;4.706;2022-08-23T04:42:39;11.18;;;7.28;;
25213;SDS011;13160;51.834;4.706;2022-08-23T04:45:07;12.52;;;7.28;;
25213;SDS011;13160;51.834;4.706;2022-08-23T04:47:36;15.10;;;8.48;;
25213;SDS011;13160;51.834;4.706;2022-08-23T04:50:06;10.88;;;8.80;;
25213;SDS011;13160;51.834;4.706;2022-08-23T04:52:36;12.25;;;9.07;;
25213;SDS011;13160;51.834;4.706;2022-08-23T04:55:05;12.40;;;9.07;;
25213;SDS011;13160;51.834;4.706;2022-08-23T04:57:34;13.15;;;9.00;;
25213;SDS011;13160;51.834;4.706;2022-08-23T05:00:03;14.57;;;9.95;;
25213;SDS011;13160;51.834;4.706;2022-08-23T05:02:33;14.65;;;9.13;;
25213;SDS011;13160;51.834;4.706;2022-08-23T05:05:02;14.90;;;9.45;;
25213;SDS011;13160;51.834;4.706;2022-08-23T05:07:32;12.00;;;8.82;;
25213;SDS011;13160;51.834;4.706;2022-08-23T05:10:11;14.27;;;9.18;;
25213;SDS011;13160;51.834;4.706;2022-08-23T05:12:41;12.13;;;8.85;;
25213;SDS011;13160;51.834;4.706;2022-08-23T05:15:10;14.18;;;8.77;;
25213;SDS011;13160;51.834;4.706;2022-08-23T05:17:39;14.82;;;8.23;;
25213;SDS011;13160;51.834;4.706;2022-08-23T05:20:07;14.88;;;8.98;;
25213;SDS011;13160;51.834;4.706;2022-08-23T05:22:38;15.02;;;9.25;;
25213;SDS011;13160;51.834;4.706;2022-08-23T05:25:09;17.77;;;10.40;;
25213;SDS011;13160;51.834;4.706;2022-08-23T05:27:38;15.18;;;9.63;;
25213;SDS011;13160;51.834;4.706;2022-08-23T05:30:08;14.27;;;9.93;;
25213;SDS011;13160;51.834;4.706;2022-08-23T05:32:41;14.57;;;10.35;;
25213;SDS011;13160;51.834;4.706;2022-08-23T05:35:15;14.48;;;9.65;;
25213;SDS011;13160;51.834;4.706;2022-08-23T05:37:45;15.20;;;10.25;;
25213;SDS011;13160;51.834;4.706;2022-08-23T05:40:18;15.93;;;10.80;;
25213;SDS011;13160;51.834;4.706;2022-08-23T05:42:58;13.90;;;10.43;;
25213;SDS011;13160;51.834;4.706;2022-08-23T05:45:26;14.43;;;10.15;;
25213;SDS011;13160;51.834;4.706;2022-08-23T05:47:55;14.60;;;9.57;;
25213;SDS011;13160;51.834;4.706;2022-08-23T05:50:24;17.02;;;10.20;;
25213;SDS011;13160;51.834;4.706;2022-08-23T05:52:58;16.27;;;10.38;;
25213;SDS011;13160;51.834;4.706;2022-08-23T05:55:28;15.48;;;9.57;;
25213;SDS011;13160;51.834;4.706;2022-08-23T05:58:00;14.73;;;9.98;;
25213;SDS011;13160;51.834;4.706;2022-08-23T06:00:30;17.90;;;10.07;;
25213;SDS011;13160;51.834;4.706;2022-08-23T06:03:05;16.13;;;9.48;;
25213;SDS011;13160;51.834;4.706;2022-08-23T06:05:36;17.13;;;10.13;;
25213;SDS011;13160;51.834;4.706;2022-08-23T06:08:07;16.15;;;10.70;;
25213;SDS011;13160;51.834;4.706;2022-08-23T06:10:37;16.40;;;10.93;;
25213;SDS011;13160;51.834;4.706;2022-08-23T06:13:07;13.73;;;10.20;;
25213;SDS011;13160;51.834;4.706;2022-08-23T06:15:40;15.57;;;10.35;;
25213;SDS011;13160;51.834;4.706;2022-08-23T06:18:10;18.08;;;10.85;;
25213;SDS011;13160;51.834;4.706;2022-08-23T06:20:39;19.20;;;11.20;;
25213;SDS011;13160;51.834;4.706;2022-08-23T06:23:08;16.52;;;11.25;;
25213;SDS011;13160;51.834;4.706;2022-08-23T06:25:38;16.92;;;11.02;;
25213;SDS011;13160;51.834;4.706;2022-08-23T06:28:07;20.05;;;11.35;;
25213;SDS011;13160;51.834;4.706;2022-08-23T06:30:36;15.93;;;11.23;;
25213;SDS011;13160;51.834;4.706;2022-08-23T06:33:05;19.30;;;11.82;;
25213;SDS011;13160;51.834;4.706;2022-08-23T06:35:34;15.93;;;12.00;;
25213;SDS011;13160;51.834;4.706;2022-08-23T06:38:05;18.77;;;12.00;;
25213;SDS011;13160;51.834;4.706;2022-08-23T06:40:34;18.02;;;12.63;;
25213;SDS011;13160;51.834;4.706;2022-08-23T06:43:04;21.58;;;13.38;;
25213;SDS011;13160;51.834;4.706;2022-08-23T06:45:32;20.15;;;13.55;;
25213;SDS011;13160;51.834;4.706;2022-08-23T06:48:00;19.00;;;13.52;;
25213;SDS011;13160;51.834;4.706;2022-08-23T06:50:29;18.17;;;13.45;;
25213;SDS011;13160;51.834;4.706;2022-08-23T06:52:58;18.73;;;14.75;;
25213;SDS011;13160;51.834;4.706;2022-08-23T06:55:32;21.73;;;13.90;;
25213;SDS011;13160;51.834;4.706;2022-08-23T06:58:01;19.27;;;15.13;;
25213;SDS011;13160;51.834;4.706;2022-08-23T07:00:31;22.83;;;15.57;;
25213;SDS011;13160;51.834;4.706;2022-08-23T07:02:59;19.15;;;14.82;;
25213;SDS011;13160;51.834;4.706;2022-08-23T07:05:28;18.20;;;14.18;;
25213;SDS011;13160;51.834;4.706;2022-08-23T07:07:56;17.30;;;13.02;;
25213;SDS011;13160;51.834;4.706;2022-08-23T07:10:25;16.10;;;12.98;;
25213;SDS011;13160;51.834;4.706;2022-08-23T07:12:53;13.95;;;11.77;;
25213;SDS011;13160;51.834;4.706;2022-08-23T07:15:21;18.55;;;12.40;;
25213;SDS011;13160;51.834;4.706;2022-08-23T07:17:51;17.60;;;11.93;;
25213;SDS011;13160;51.834;4.706;2022-08-23T07:20:19;16.50;;;12.00;;
25213;SDS011;13160;51.834;4.706;2022-08-23T07:22:47;17.30;;;12.32;;
25213;SDS011;13160;51.834;4.706;2022-08-23T07:25:16;15.90;;;10.60;;
25213;SDS011;13160;51.834;4.706;2022-08-23T07:27:44;17.35;;;11.00;;
25213;SDS011;13160;51.834;4.706;2022-08-23T07:30:14;15.10;;;9.02;;
25213;SDS011;13160;51.834;4.706;2022-08-23T07:32:43;13.27;;;8.20;;
25213;SDS011;13160;51.834;4.706;2022-08-23T07:35:13;12.45;;;6.75;;
25213;SDS011;13160;51.834;4.706;2022-08-23T07:37:41;8.32;;;5.05;;
25213;SDS011;13160;51.834;4.706;2022-08-23T07:40:10;11.13;;;5.60;;
25213;SDS011;13160;51.834;4.706;2022-08-23T07:42:46;9.68;;;4.75;;
25213;SDS011;13160;51.834;4.706;2022-08-23T07:45:14;8.90;;;4.57;;
25213;SDS011;13160;51.834;4.706;2022-08-23T07:47:48;12.32;;;5.22;;
25213;SDS011;13160;51.834;4.706;2022-08-23T07:50:18;14.23;;;4.70;;
25213;SDS011;13160;51.834;4.706;2022-08-23T07:52:47;8.27;;;4.40;;
25213;SDS011;13160;51.834;4.706;2022-08-23T07:55:17;9.95;;;4.78;;
25213;SDS011;13160;51.834;4.706;2022-08-23T07:57:46;12.35;;;4.60;;
25213;SDS011;13160;51.834;4.706;2022-08-23T08:00:14;13.85;;;3.83;;
25213;SDS011;13160;51.834;4.706;2022-08-23T08:02:43;11.38;;;4.78;;
25213;SDS011;13160;51.834;4.706;2022-08-23T08:05:12;9.35;;;3.97;;
25213;SDS011;13160;51.834;4.706;2022-08-23T08:07:48;8.57;;;4.18;;
25213;SDS011;13160;51.834;4.706;2022-08-23T08:10:16;8.80;;;3.97;;
25213;SDS011;13160;51.834;4.706;2022-08-23T08:12:46;8.38;;;4.15;;
25213;SDS011;13160;51.834;4.706;2022-08-23T08:15:15;9.02;;;2.95;;
25213;SDS011;13160;51.834;4.706;2022-08-23T08:17:45;5.72;;;2.90;;
25213;SDS011;13160;51.834;4.706;2022-08-23T08:20:14;10.93;;;3.70;;
25213;SDS011;13160;51.834;4.706;2022-08-23T08:22:43;10.88;;;3.67;;
25213;SDS011;13160;51.834;4.706;2022-08-23T08:25:23;11.68;;;3.38;;
25213;SDS011;13160;51.834;4.706;2022-08-23T08:27:51;9.60;;;3.67;;
25213;SDS011;13160;51.834;4.706;2022-08-23T08:30:19;8.45;;;3.80;;
25213;SDS011;13160;51.834;4.706;2022-08-23T08:32:48;9.63;;;3.72;;
25213;SDS011;13160;51.834;4.706;2022-08-23T08:35:17;11.77;;;3.67;;
25213;SDS011;13160;51.834;4.706;2022-08-23T08:37:45;9.55;;;3.53;;
25213;SDS011;13160;51.834;4.706;2022-08-23T08:40:14;8.38;;;3.17;;
25213;SDS011;13160;51.834;4.706;2022-08-23T08:42:57;8.38;;;3.88;;
25213;SDS011;13160;51.834;4.706;2022-08-23T08:45:44;8.43;;;3.17;;
25213;SDS011;13160;51.834;4.706;2022-08-23T08:48:28;9.73;;;2.70;;
25213;SDS011;13160;51.834;4.706;2022-08-23T08:51:04;10.10;;;3.28;;
25213;SDS011;13160;51.834;4.706;2022-08-23T08:53:46;10.30;;;3.40;;
25213;SDS011;13160;51.834;4.706;2022-08-23T08:56:19;6.60;;;3.05;;
25213;SDS011;13160;51.834;4.706;2022-08-23T08:59:01;7.85;;;2.90;;
25213;SDS011;13160;51.834;4.706;2022-08-23T09:01:33;9.82;;;3.13;;
25213;SDS011;13160;51.834;4.706;2022-08-23T09:04:04;9.68;;;3.30;;
25213;SDS011;13160;51.834;4.706;2022-08-23T09:06:41;10.25;;;3.85;;
25213;SDS011;13160;51.834;4.706;2022-08-23T09:09:22;8.30;;;3.67;;
25213;SDS011;13160;51.834;4.706;2022-08-23T09:12:15;7.47;;;3.00;;
25213;SDS011;13160;51.834;4.706;2022-08-23T09:14:57;9.02;;;3.47;;
25213;SDS011;13160;51.834;4.706;2022-08-23T09:17:42;8.65;;;3.38;;
25213;SDS011;13160;51.834;4.706;2022-08-23T09:20:16;12.98;;;2.78;;
25213;SDS011;13160;51.834;4.706;2022-08-23T09:22:48;7.00;;;3.65;;
25213;SDS011;13160;51.834;4.706;2022-08-23T09:25:20;9.10;;;4.35;;
25213;SDS011;13160;51.834;4.706;2022-08-23T09:27:49;10.30;;;3.85;;
25213;SDS011;13160;51.834;4.706;2022-08-23T09:30:19;9.85;;;5.32;;
25213;SDS011;13160;51.834;4.706;2022-08-23T09:32:48;11.85;;;4.43;;
25213;SDS011;13160;51.834;4.706;2022-08-23T09:35:19;10.73;;;5.00;;
25213;SDS011;13160;51.834;4.706;2022-08-23T09:37:57;8.77;;;4.28;;
25213;SDS011;13160;51.834;4.706;2022-08-23T09:40:30;9.55;;;5.22;;
25213;SDS011;13160;51.834;4.706;2022-08-23T09:43:09;12.00;;;4.57;;
25213;SDS011;13160;51.834;4.706;2022-08-23T09:45:54;13.60;;;5.45;;
25213;SDS011;13160;51.834;4.706;2022-08-23T09:48:36;12.88;;;5.32;;
25213;SDS011;13160;51.834;4.706;2022-08-23T09:51:11;13.38;;;6.28;;
25213;SDS011;13160;51.834;4.706;2022-08-23T09:53:46;13.18;;;5.95;;
25213;SDS011;13160;51.834;4.706;2022-08-23T09:56:21;13.35;;;4.57;;
25213;SDS011;13160;51.834;4.706;2022-08-23T09:58:51;11.77;;;5.47;;
25213;SDS011;13160;51.834;4.706;2022-08-23T10:01:22;10.82;;;5.38;;
25213;SDS011;13160;51.834;4.706;2022-08-23T10:04:05;8.98;;;4.95;;
25213;SDS011;13160;51.834;4.706;2022-08-23T10:06:39;8.18;;;4.63;;
25213;SDS011;13160;51.834;4.706;2022-08-23T10:09:20;10.15;;;4.93;;
25213;SDS011;13160;51.834;4.706;2022-08-23T10:11:52;9.68;;;5.00;;
25213;SDS011;13160;51.834;4.706;2022-08-23T10:14:23;9.50;;;5.10;;
25213;SDS011;13160;51.834;4.706;2022-08-23T10:16:59;11.48;;;5.05;;
25213;SDS011;13160;51.834;4.706;2022-08-23T10:19:35;13.68;;;4.82;;
25213;SDS011;13160;51.834;4.706;2022-08-23T10:22:13;12.30;;;6.15;;
25213;SDS011;13160;51.834;4.706;2022-08-23T10:24:49;9.93;;;5.00;;
25213;SDS011;13160;51.834;4.706;2022-08-23T10:27:32;9.00;;;4.70;;
25213;SDS011;13160;51.834;4.706;2022-08-23T10:30:35;8.27;;;4.10;;
25213;SDS011;13160;51.834;4.706;2022-08-23T10:33:18;10.82;;;5.03;;
25213;SDS011;13160;51.834;4.706;2022-08-23T10:35:54;11.73;;;4.80;;
25213;SDS011;13160;51.834;4.706;2022-08-23T10:38:32;9.02;;;5.60;;
25213;SDS011;13160;51.834;4.706;2022-08-23T10:41:10;11.38;;;5.80;;
25213;SDS011;13160;51.834;4.706;2022-08-23T10:44:08;11.52;;;5.88;;
25213;SDS011;13160;51.834;4.706;2022-08-23T10:46:57;9.65;;;4.78;;
25213;SDS011;13160;51.834;4.706;2022-08-23T10:49:39;12.75;;;4.70;;
25213;SDS011;13160;51.834;4.706;2022-08-23T10:52:11;9.45;;;5.10;;
25213;SDS011;13160;51.834;4.706;2022-08-23T10:54:47;8.50;;;5.00;;
25213;SDS011;13160;51.834;4.706;2022-08-23T10:57:33;10.43;;;4.57;;
25213;SDS011;13160;51.834;4.706;2022-08-23T11:00:07;9.27;;;4.93;;
25213;SDS011;13160;51.834;4.706;2022-08-23T11:02:42;9.50;;;4.78;;
25213;SDS011;13160;51.834;4.706;2022-08-23T11:05:18;11.90;;;4.75;;
25213;SDS011;13160;51.834;4.706;2022-08-23T11:08:00;10.02;;;5.18;;
25213;SDS011;13160;51.834;4.706;2022-08-23T11:10:39;8.25;;;4.28;;
25213;SDS011;13160;51.834;4.706;2022-08-23T11:13:22;13.85;;;4.93;;
25213;SDS011;13160;51.834;4.706;2022-08-23T11:15:54;11.05;;;5.25;;
25213;SDS011;13160;51.834;4.706;2022-08-23T11:18:37;11.18;;;4.70;;
25213;SDS011;13160;51.834;4.706;2022-08-23T11:21:39;9.02;;;5.10;;
25213;SDS011;13160;51.834;4.706;2022-08-23T11:24:28;11.13;;;5.15;;
25213;SDS011;13160;51.834;4.706;2022-08-23T11:27:27;11.25;;;5.80;;
25213;SDS011;13160;51.834;4.706;2022-08-23T11:33:24;9.45;;;5.40;;
25213;SDS011;13160;51.834;4.706;2022-08-23T11:36:15;9.27;;;4.15;;
25213;SDS011;13160;51.834;4.706;2022-08-23T11:38:59;12.43;;;5.50;;
25213;SDS011;13160;51.834;4.706;2022-08-23T11:44:32;9.48;;;5.18;;
25213;SDS011;13160;51.834;4.706;2022-08-23T11:47:08;9.10;;;5.15;;
25213;SDS011;13160;51.834;4.706;2022-08-23T11:52:52;11.68;;;5.07;;
25213;SDS011;13160;51.834;4.706;2022-08-23T11:59:15;11.10;;;6.13;;
25213;SDS011;13160;51.834;4.706;2022-08-23T12:05:16;14.60;;;4.78;;
25213;SDS011;13160;51.834;4.706;2022-08-23T12:08:26;13.55;;;5.10;;
25213;SDS011;13160;51.834;4.706;2022-08-23T12:11:19;9.32;;;5.35;;
25213;SDS011;13160;51.834;4.706;2022-08-23T12:13:55;11.77;;;4.72;;
25213;SDS011;13160;51.834;4.706;2022-08-23T12:16:33;13.30;;;5.35;;
25213;SDS011;13160;51.834;4.706;2022-08-23T12:19:17;11.68;;;5.20;;
25213;SDS011;13160;51.834;4.706;2022-08-23T12:21:56;10.48;;;3.85;;
25213;SDS011;13160;51.834;4.706;2022-08-23T12:24:41;6.68;;;3.55;;
25213;SDS011;13160;51.834;4.706;2022-08-23T12:27:21;8.18;;;3.17;;
25213;SDS011;13160;51.834;4.706;2022-08-23T12:29:56;6.80;;;3.65;;
25213;SDS011;13160;51.834;4.706;2022-08-23T12:32:33;7.22;;;3.28;;
25213;SDS011;13160;51.834;4.706;2022-08-23T12:35:15;10.73;;;4.82;;
25213;SDS011;13160;51.834;4.706;2022-08-23T12:37:58;10.48;;;3.88;;
25213;SDS011;13160;51.834;4.706;2022-08-23T12:40:35;9.43;;;4.25;;
25213;SDS011;13160;51.834;4.706;2022-08-23T12:43:09;6.75;;;3.30;;
25213;SDS011;13160;51.834;4.706;2022-08-23T12:45:49;7.03;;;3.35;;
25213;SDS011;13160;51.834;4.706;2022-08-23T12:48:21;7.38;;;3.30;;
25213;SDS011;13160;51.834;4.706;2022-08-23T12:50:52;11.93;;;2.92;;
25213;SDS011;13160;51.834;4.706;2022-08-23T12:53:28;6.07;;;2.90;;
25213;SDS011;13160;51.834;4.706;2022-08-23T12:56:10;6.82;;;2.63;;
25213;SDS011;13160;51.834;4.706;2022-08-23T12:58:47;6.03;;;2.47;;
25213;SDS011;13160;51.834;4.706;2022-08-23T13:01:20;5.70;;;2.40;;
25213;SDS011;13160;51.834;4.706;2022-08-23T13:03:57;10.10;;;3.08;;
25213;SDS011;13160;51.834;4.706;2022-08-23T13:06:32;7.50;;;3.17;;
25213;SDS011;13160;51.834;4.706;2022-08-23T13:09:08;7.45;;;3.22;;
25213;SDS011;13160;51.834;4.706;2022-08-23T13:11:45;8.20;;;3.50;;
25213;SDS011;13160;51.834;4.706;2022-08-23T13:14:21;5.95;;;2.92;;
25213;SDS011;13160;51.834;4.706;2022-08-23T13:16:56;9.63;;;3.80;;
25213;SDS011;13160;51.834;4.706;2022-08-23T13:19:39;8.55;;;3.33;;
25213;SDS011;13160;51.834;4.706;2022-08-23T13:22:08;9.30;;;3.50;;
25213;SDS011;13160;51.834;4.706;2022-08-23T13:24:40;8.98;;;4.00;;
25213;SDS011;13160;51.834;4.706;2022-08-23T13:27:14;9.77;;;3.97;;
25213;SDS011;13160;51.834;4.706;2022-08-23T13:29:48;9.52;;;3.47;;
25213;SDS011;13160;51.834;4.706;2022-08-23T13:32:23;11.32;;;3.90;;
25213;SDS011;13160;51.834;4.706;2022-08-23T13:37:56;8.27;;;3.03;;
25213;SDS011;13160;51.834;4.706;2022-08-23T13:40:29;6.20;;;3.40;;
25213;SDS011;13160;51.834;4.706;2022-08-23T13:43:02;10.27;;;3.47;;
25213;SDS011;13160;51.834;4.706;2022-08-23T13:45:36;7.38;;;2.95;;
25213;SDS011;13160;51.834;4.706;2022-08-23T13:48:15;8.45;;;3.33;;
25213;SDS011;13160;51.834;4.706;2022-08-23T13:50:48;7.25;;;3.38;;
25213;SDS011;13160;51.834;4.706;2022-08-23T13:53:17;8.32;;;2.90;;
25213;SDS011;13160;51.834;4.706;2022-08-23T13:55:46;7.20;;;2.97;;
25213;SDS011;13160;51.834;4.706;2022-08-23T13:58:26;8.18;;;3.20;;
25213;SDS011;13160;51.834;4.706;2022-08-23T14:00:58;7.25;;;2.90;;
25213;SDS011;13160;51.834;4.706;2022-08-23T14:03:29;5.80;;;2.97;;
25213;SDS011;13160;51.834;4.706;2022-08-23T14:05:58;6.75;;;2.97;;
25213;SDS011;13160;51.834;4.706;2022-08-23T14:08:27;7.22;;;2.70;;
25213;SDS011;13160;51.834;4.706;2022-08-23T14:10:55;6.85;;;2.78;;
25213;SDS011;13160;51.834;4.706;2022-08-23T14:13:26;6.20;;;2.95;;
25213;SDS011;13160;51.834;4.706;2022-08-23T14:15:56;8.13;;;2.80;;
25213;SDS011;13160;51.834;4.706;2022-08-23T14:18:50;5.70;;;2.60;;
25213;SDS011;13160;51.834;4.706;2022-08-23T14:21:39;7.18;;;2.80;;
25213;SDS011;13160;51.834;4.706;2022-08-23T14:24:07;8.63;;;2.63;;
25213;SDS011;13160;51.834;4.706;2022-08-23T14:26:36;7.60;;;2.60;;
25213;SDS011;13160;51.834;4.706;2022-08-23T14:29:18;6.97;;;2.63;;
25213;SDS011;13160;51.834;4.706;2022-08-23T14:31:48;8.38;;;3.00;;
25213;SDS011;13160;51.834;4.706;2022-08-23T14:34:17;6.38;;;2.30;;
25213;SDS011;13160;51.834;4.706;2022-08-23T14:36:45;6.75;;;2.30;;
25213;SDS011;13160;51.834;4.706;2022-08-23T14:39:34;5.93;;;2.42;;
25213;SDS011;13160;51.834;4.706;2022-08-23T14:42:03;8.05;;;2.80;;
25213;SDS011;13160;51.834;4.706;2022-08-23T14:44:34;7.97;;;2.63;;
25213;SDS011;13160;51.834;4.706;2022-08-23T14:47:03;4.32;;;2.55;;
25213;SDS011;13160;51.834;4.706;2022-08-23T14:49:32;6.15;;;2.50;;
25213;SDS011;13160;51.834;4.706;2022-08-23T14:52:01;4.80;;;1.90;;
25213;SDS011;13160;51.834;4.706;2022-08-23T14:54:33;5.32;;;2.28;;
25213;SDS011;13160;51.834;4.706;2022-08-23T14:57:02;6.47;;;2.70;;
25213;SDS011;13160;51.834;4.706;2022-08-23T14:59:30;7.35;;;2.38;;
25213;SDS011;13160;51.834;4.706;2022-08-23T15:02:00;5.68;;;3.00;;
25213;SDS011;13160;51.834;4.706;2022-08-23T15:04:30;7.28;;;3.60;;
25213;SDS011;13160;51.834;4.706;2022-08-23T15:07:00;6.07;;;2.80;;
25213;SDS011;13160;51.834;4.706;2022-08-23T15:09:43;6.38;;;2.97;;
25213;SDS011;13160;51.834;4.706;2022-08-23T15:12:12;7.47;;;2.88;;
25213;SDS011;13160;51.834;4.706;2022-08-23T15:15:00;4.60;;;2.35;;
25213;SDS011;13160;51.834;4.706;2022-08-23T15:17:31;5.40;;;2.70;;
25213;SDS011;13160;51.834;4.706;2022-08-23T15:20:04;6.18;;;2.88;;
25213;SDS011;13160;51.834;4.706;2022-08-23T15:22:33;8.20;;;3.08;;
25213;SDS011;13160;51.834;4.706;2022-08-23T15:25:09;7.50;;;2.20;;
25213;SDS011;13160;51.834;4.706;2022-08-23T15:27:38;5.82;;;3.42;;
25213;SDS011;13160;51.834;4.706;2022-08-23T15:30:08;6.28;;;3.30;;
25213;SDS011;13160;51.834;4.706;2022-08-23T15:32:40;9.27;;;3.55;;